Time;durP1;ratioP1;P1;durP2;ratioP2;P2;SDS_P1;SDS_P2;PMS_P1;PMS_P2;Temp;Humidity;BMP_temperature;BMP_pressure;BME280_temperature;BME280_humidity;BME280_pressure;Samples;Min_cycle;Max_cycle;Signal;HPM_P1;HPM_P2
2022/03/26 00:01:23;;;;;;;7.37;4.27;;;14.30;50.50;;;;;;5029644;28;20283;-48
2022/03/26 00:03:51;;;;;;;8.47;4.87;;;14.30;50.60;;;;;;5029172;28;20200;-50
2022/03/26 00:06:18;;;;;;;12.33;5.60;;;14.20;50.80;;;;;;5029901;28;20290;-47
2022/03/26 00:08:48;;;;;;;9.33;5.47;;;14.20;51.10;;;;;;5009598;28;20288;-51
2022/03/26 00:11:15;;;;;;;9.77;4.90;;;14.20;51.10;;;;;;5009655;28;20660;-53
2022/03/26 00:13:42;;;;;;;10.03;5.30;;;14.10;51.10;;;;;;5010361;28;20210;-47
2022/03/26 00:16:10;;;;;;;6.30;4.27;;;14.10;51.20;;;;;;5008360;28;20690;-52
2022/03/26 00:18:38;;;;;;;13.90;5.27;;;14.10;51.00;;;;;;5008448;28;20242;-48
2022/03/26 00:21:06;;;;;;;10.10;5.40;;;14.10;51.10;;;;;;5014632;28;20192;-46
2022/03/26 00:23:34;;;;;;;6.93;4.30;;;14.10;51.20;;;;;;5019101;28;20197;-50
2022/03/26 00:26:01;;;;;;;7.37;4.33;;;14.10;51.10;;;;;;5008511;28;20205;-48
2022/03/26 00:28:28;;;;;;;8.03;4.70;;;14.20;51.20;;;;;;5009369;28;20193;-48
2022/03/26 00:30:56;;;;;;;9.53;5.13;;;14.20;51.30;;;;;;5004439;28;20208;-50
2022/03/26 00:33:24;;;;;;;10.07;5.30;;;14.20;51.30;;;;;;5009414;28;20202;-46
2022/03/26 00:35:51;;;;;;;11.10;5.20;;;14.20;51.40;;;;;;5009952;28;20684;-46
2022/03/26 00:38:19;;;;;;;8.13;5.33;;;14.20;51.40;;;;;;5008414;28;20289;-49
2022/03/26 00:40:46;;;;;;;10.20;6.07;;;14.20;51.50;;;;;;5008671;28;20233;-45
2022/03/26 00:43:14;;;;;;;13.47;6.20;;;14.20;51.70;;;;;;5009780;28;20239;-45
2022/03/26 00:45:41;;;;;;;8.33;5.43;;;14.10;51.80;;;;;;5009479;28;20693;-45
2022/03/26 00:48:09;;;;;;;9.60;5.37;;;14.10;51.70;;;;;;5009494;28;20633;-46
2022/03/26 00:50:36;;;;;;;7.93;5.17;;;14.20;51.60;;;;;;5013957;28;20567;-44
2022/03/26 00:53:03;;;;;;;10.63;5.97;;;14.20;51.60;;;;;;5006685;28;20203;-46
2022/03/26 00:55:31;;;;;;;8.63;6.03;;;14.20;51.80;;;;;;5009235;28;20217;-47
2022/03/26 00:57:58;;;;;;;12.83;6.63;;;14.20;51.90;;;;;;5010771;28;20196;-48
2022/03/26 01:00:26;;;;;;;11.77;5.97;;;14.10;52.10;;;;;;5008900;28;20255;-47
2022/03/26 01:02:54;;;;;;;10.13;5.83;;;14.10;52.10;;;;;;5008028;28;20232;-51
2022/03/26 01:05:21;;;;;;;11.57;6.73;;;14.10;52.20;;;;;;5009345;28;20206;-48
2022/03/26 01:07:48;;;;;;;13.53;7.13;;;14.10;52.50;;;;;;5028299;28;20207;-49
2022/03/26 01:10:16;;;;;;;11.33;5.97;;;14.00;52.50;;;;;;5028481;28;20254;-49
2022/03/26 01:12:44;;;;;;;11.60;7.17;;;14.00;52.60;;;;;;5029740;28;20222;-49
2022/03/26 01:15:11;;;;;;;12.77;6.93;;;14.00;52.90;;;;;;5029280;28;20552;-50
2022/03/26 01:17:38;;;;;;;14.40;7.30;;;14.00;53.80;;;;;;5028614;28;20239;-49
2022/03/26 01:20:08;;;;;;;10.60;6.50;;;14.00;53.30;;;;;;5015278;28;20545;-51
2022/03/26 01:22:35;;;;;;;12.27;6.87;;;14.00;53.20;;;;;;5035191;28;20199;-46
2022/03/26 01:25:02;;;;;;;9.10;5.70;;;13.90;53.20;;;;;;5036177;28;20207;-45
2022/03/26 01:27:29;;;;;;;10.03;5.77;;;13.90;53.10;;;;;;5035491;28;20218;-44
2022/03/26 01:29:57;;;;;;;8.70;5.87;;;14.00;53.10;;;;;;5034868;28;20192;-48
2022/03/26 01:32:25;;;;;;;6.80;5.23;;;13.90;53.10;;;;;;5035316;28;20195;-45
2022/03/26 01:34:52;;;;;;;14.23;7.00;;;14.00;53.10;;;;;;5036280;28;20214;-50
2022/03/26 01:37:19;;;;;;;10.50;6.67;;;14.00;53.30;;;;;;5034805;28;20575;-45
2022/03/26 01:39:46;;;;;;;15.13;6.87;;;13.90;53.30;;;;;;5033844;28;20214;-45
2022/03/26 01:42:13;;;;;;;15.30;8.10;;;14.00;53.50;;;;;;5034759;28;21014;-44
2022/03/26 01:44:40;;;;;;;12.53;7.63;;;13.90;53.80;;;;;;5035650;28;20209;-48
2022/03/26 01:47:09;;;;;;;13.47;7.93;;;13.90;54.00;;;;;;5034697;28;20195;-47
2022/03/26 01:49:36;;;;;;;16.60;8.13;;;13.80;54.00;;;;;;5033946;28;20199;-48
2022/03/26 01:52:07;;;;;;;12.47;7.27;;;13.80;54.30;;;;;;5035378;28;20199;-49
2022/03/26 01:54:34;;;;;;;11.97;7.20;;;13.70;54.20;;;;;;5035295;28;20196;-46
2022/03/26 01:57:02;;;;;;;14.07;7.33;;;13.60;54.30;;;;;;5035038;28;20219;-46
2022/03/26 01:59:29;;;;;;;15.57;7.57;;;13.60;54.40;;;;;;5035983;28;20207;-46
2022/03/26 02:01:56;;;;;;;10.30;6.60;;;13.60;54.60;;;;;;5028933;28;20206;-47
2022/03/26 02:04:26;;;;;;;15.03;7.53;;;13.60;54.70;;;;;;5035356;28;20640;-45
2022/03/26 02:06:54;;;;;;;18.10;8.30;;;13.50;54.90;;;;;;5034557;28;20227;-45
2022/03/26 02:09:21;;;;;;;9.80;6.13;;;13.40;55.10;;;;;;5035267;28;20524;-47
2022/03/26 02:11:49;;;;;;;15.70;7.77;;;13.40;55.10;;;;;;5034799;28;20289;-45
2022/03/26 02:14:16;;;;;;;14.23;8.03;;;13.40;55.60;;;;;;5035427;28;20219;-46
2022/03/26 02:16:44;;;;;;;14.40;7.63;;;13.30;55.70;;;;;;5034493;28;20219;-44
2022/03/26 02:19:12;;;;;;;13.43;6.50;;;13.30;55.90;;;;;;5034785;28;20540;-48
2022/03/26 02:21:40;;;;;;;13.43;6.10;;;13.30;55.90;;;;;;5034982;28;20574;-46
2022/03/26 02:24:08;;;;;;;11.83;7.03;;;13.30;56.00;;;;;;5035125;28;20190;-45
2022/03/26 02:26:36;;;;;;;16.30;7.60;;;13.30;56.40;;;;;;5034622;28;20194;-45
2022/03/26 02:29:08;;;;;;;15.77;7.77;;;13.20;56.40;;;;;;5036177;28;20278;-46
2022/03/26 02:31:36;;;;;;;11.80;6.77;;;13.20;56.60;;;;;;5030521;28;20206;-44
2022/03/26 02:34:04;;;;;;;17.33;7.37;;;13.20;56.80;;;;;;5031860;28;20293;-50
2022/03/26 02:36:31;;;;;;;12.00;6.53;;;13.10;57.00;;;;;;5030216;28;20265;-46
2022/03/26 02:39:00;;;;;;;12.93;6.90;;;13.10;57.20;;;;;;5031237;28;20198;-48
2022/03/26 02:41:27;;;;;;;9.77;5.77;;;13.20;57.30;;;;;;5031436;28;20187;-47
2022/03/26 02:43:54;;;;;;;13.00;6.70;;;13.20;57.30;;;;;;5030542;28;20321;-45
2022/03/26 02:46:21;;;;;;;9.80;6.43;;;13.20;57.50;;;;;;5031202;28;20218;-47
2022/03/26 02:48:49;;;;;;;12.67;6.83;;;13.20;57.70;;;;;;5019432;28;20205;-49
2022/03/26 02:51:16;;;;;;;9.87;6.00;;;13.10;57.80;;;;;;5032497;28;20205;-51
2022/03/26 02:53:44;;;;;;;11.73;6.33;;;13.10;58.10;;;;;;5030846;28;20608;-47
2022/03/26 02:56:12;;;;;;;10.40;6.10;;;13.10;58.30;;;;;;5031707;28;20515;-47
2022/03/26 02:58:39;;;;;;;13.87;6.17;;;13.00;58.30;;;;;;5029236;28;20198;-48
2022/03/26 03:01:07;;;;;;;12.53;6.00;;;13.10;58.50;;;;;;5031386;28;20206;-49
2022/03/26 03:03:34;;;;;;;14.00;6.50;;;13.00;58.50;;;;;;5030711;28;20282;-49
2022/03/26 03:06:01;;;;;;;12.50;6.30;;;13.00;58.80;;;;;;5031544;28;20226;-51
2022/03/26 03:08:28;;;;;;;10.30;5.40;;;13.00;59.00;;;;;;5029934;28;20198;-50
2022/03/26 03:10:55;;;;;;;8.20;5.43;;;12.90;59.00;;;;;;5031534;28;20256;-47
2022/03/26 03:13:24;;;;;;;14.57;6.57;;;12.90;59.10;;;;;;5030977;28;20255;-51
2022/03/26 03:15:52;;;;;;;9.47;5.93;;;12.90;59.60;;;;;;5030921;28;20183;-51
2022/03/26 03:18:19;;;;;;;12.67;5.30;;;12.90;59.70;;;;;;5030354;28;20193;-49
2022/03/26 03:20:47;;;;;;;15.50;5.80;;;12.90;59.90;;;;;;5031839;28;20202;-49
2022/03/26 03:23:14;;;;;;;10.83;5.50;;;12.80;60.10;;;;;;5030255;28;20205;-49
2022/03/26 03:25:41;;;;;;;12.03;5.47;;;12.80;60.40;;;;;;5031269;28;20197;-47
2022/03/26 03:28:08;;;;;;;13.20;5.63;;;12.80;60.80;;;;;;5030709;28;20552;-50
2022/03/26 03:30:37;;;;;;;7.73;5.13;;;12.70;60.90;;;;;;5030117;28;20198;-47
2022/03/26 03:33:05;;;;;;;11.40;6.33;;;12.70;61.50;;;;;;5030666;28;20202;-49
2022/03/26 03:35:32;;;;;;;15.33;6.47;;;12.70;61.80;;;;;;5031295;28;20225;-50
2022/03/26 03:37:59;;;;;;;10.07;5.30;;;12.60;62.60;;;;;;5029679;28;20221;-48
2022/03/26 03:40:26;;;;;;;7.40;5.00;;;12.60;62.70;;;;;;5030878;28;20194;-51
2022/03/26 03:42:54;;;;;;;8.20;4.90;;;12.60;63.00;;;;;;5030630;28;20202;-47
2022/03/26 03:45:22;;;;;;;9.80;4.90;;;12.60;63.20;;;;;;5030494;28;20206;-50
2022/03/26 03:47:51;;;;;;;9.60;5.13;;;12.60;63.60;;;;;;5029864;28;20635;-45
2022/03/26 03:50:18;;;;;;;8.77;4.90;;;12.60;63.80;;;;;;5031336;28;20195;-45
2022/03/26 03:52:45;;;;;;;5.83;4.20;;;12.60;64.00;;;;;;5030076;28;20205;-46
2022/03/26 03:55:13;;;;;;;10.23;4.87;;;12.70;64.10;;;;;;5030957;28;20201;-46
2022/03/26 03:57:43;;;;;;;9.90;5.43;;;12.70;64.30;;;;;;5012206;28;20217;-47
2022/03/26 04:00:11;;;;;;;9.37;5.50;;;12.70;64.60;;;;;;5030637;28;20195;-49
2022/03/26 04:02:42;;;;;;;7.67;4.77;;;12.70;64.70;;;;;;5030276;28;20612;-51
2022/03/26 04:05:11;;;;;;;8.77;5.00;;;12.70;64.80;;;;;;5030921;28;20201;-48
2022/03/26 04:07:39;;;;;;;7.53;4.97;;;12.80;65.20;;;;;;5009915;28;20856;-53
2022/03/26 04:10:09;;;;;;;7.07;4.93;;;12.80;65.30;;;;;;5010952;28;20195;-47
2022/03/26 04:12:36;;;;;;;10.07;5.27;;;12.80;65.60;;;;;;5010384;28;20196;-51
2022/03/26 04:15:04;;;;;;;7.33;5.00;;;12.80;65.90;;;;;;5010377;28;20195;-51
2022/03/26 04:17:32;;;;;;;10.47;5.23;;;12.80;65.90;;;;;;5010414;28;20697;-48
2022/03/26 04:19:59;;;;;;;11.50;4.50;;;12.90;66.20;;;;;;5009439;28;20207;-51
2022/03/26 04:22:28;;;;;;;8.10;4.70;;;12.90;66.20;;;;;;5010032;28;20670;-50
2022/03/26 04:24:55;;;;;;;7.23;4.97;;;12.80;66.60;;;;;;5010098;28;20655;-54
2022/03/26 04:27:22;;;;;;;8.50;4.80;;;12.80;66.90;;;;;;5005440;28;20191;-52
2022/03/26 04:29:50;;;;;;;5.47;4.53;;;12.90;67.20;;;;;;5010315;28;20225;-49
2022/03/26 04:32:17;;;;;;;6.90;4.50;;;12.90;67.30;;;;;;5009683;28;20195;-50
2022/03/26 04:34:44;;;;;;;6.67;4.90;;;12.90;67.40;;;;;;5010112;28;20915;-51
2022/03/26 04:37:11;;;;;;;7.23;4.60;;;12.90;67.60;;;;;;5008195;28;20215;-46
2022/03/26 04:39:39;;;;;;;7.73;5.47;;;12.90;67.60;;;;;;5006697;28;20204;-46
2022/03/26 04:42:08;;;;;;;18.07;5.50;;;12.90;68.00;;;;;;5010154;28;20202;-49
2022/03/26 04:44:35;;;;;;;7.93;5.03;;;12.80;68.60;;;;;;4996008;28;20660;-48
2022/03/26 04:47:02;;;;;;;9.03;4.93;;;12.80;69.10;;;;;;5009236;28;20227;-45
2022/03/26 04:49:29;;;;;;;9.67;5.27;;;12.70;69.70;;;;;;5010645;28;20202;-48
2022/03/26 04:51:56;;;;;;;7.53;5.10;;;12.70;70.00;;;;;;5010143;28;21406;-46
2022/03/26 04:54:23;;;;;;;7.63;4.97;;;12.70;70.40;;;;;;5003025;28;20232;-46
2022/03/26 04:56:52;;;;;;;9.27;5.50;;;12.70;70.60;;;;;;5009555;28;20691;-45
2022/03/26 04:59:19;;;;;;;9.60;5.67;;;12.70;71.40;;;;;;5010358;28;20195;-47
2022/03/26 05:01:47;;;;;;;8.90;5.30;;;12.60;71.50;;;;;;5009378;28;20690;-51
2022/03/26 05:04:15;;;;;;;7.20;4.47;;;12.60;72.20;;;;;;5009166;28;20195;-49
2022/03/26 05:06:42;;;;;;;7.03;4.87;;;12.60;72.20;;;;;;5009314;28;20242;-48
2022/03/26 05:09:09;;;;;;;13.50;5.30;;;12.70;72.80;;;;;;5009955;28;20198;-46
2022/03/26 05:11:37;;;;;;;9.70;5.37;;;12.70;73.10;;;;;;5008267;28;20225;-44
2022/03/26 05:14:05;;;;;;;8.87;5.03;;;12.70;73.50;;;;;;5009400;28;20206;-44
2022/03/26 05:16:33;;;;;;;7.60;5.60;;;12.70;73.60;;;;;;5006054;28;20663;-44
2022/03/26 05:19:00;;;;;;;9.17;5.40;;;12.70;73.90;;;;;;5018414;28;20689;-45
2022/03/26 05:21:27;;;;;;;8.23;5.07;;;12.70;74.60;;;;;;5009622;28;20278;-47
2022/03/26 05:23:54;;;;;;;7.87;5.37;;;12.70;74.90;;;;;;5008501;28;20195;-46
2022/03/26 05:26:22;;;;;;;6.90;5.03;;;12.60;75.30;;;;;;5009074;28;20191;-47
2022/03/26 05:28:50;;;;;;;8.57;5.20;;;12.70;75.60;;;;;;5020868;28;20277;-46
2022/03/26 05:31:18;;;;;;;7.77;4.80;;;12.70;75.70;;;;;;5008997;28;20553;-45
2022/03/26 05:33:46;;;;;;;9.83;5.47;;;12.70;75.80;;;;;;5008386;28;20292;-45
2022/03/26 05:36:13;;;;;;;8.17;5.37;;;12.70;76.10;;;;;;5006746;28;20209;-46
2022/03/26 05:38:40;;;;;;;7.50;5.13;;;12.70;76.40;;;;;;5009174;28;20237;-46
2022/03/26 05:41:07;;;;;;;12.20;5.30;;;12.70;76.70;;;;;;5009339;28;20201;-49
2022/03/26 05:43:34;;;;;;;8.40;5.07;;;12.70;77.30;;;;;;5018825;28;20207;-45
2022/03/26 05:46:01;;;;;;;8.73;5.10;;;12.70;77.50;;;;;;5007029;28;20653;-46
2022/03/26 05:48:30;;;;;;;10.07;5.20;;;12.70;77.90;;;;;;5009512;28;20188;-45
2022/03/26 05:50:57;;;;;;;8.50;5.30;;;12.70;78.00;;;;;;5009883;28;20216;-53
2022/03/26 05:53:24;;;;;;;6.90;4.57;;;12.70;78.10;;;;;;5007855;28;20205;-51
2022/03/26 05:55:52;;;;;;;10.57;5.47;;;12.70;78.40;;;;;;5011256;28;20193;-50
2022/03/26 05:58:20;;;;;;;7.03;4.90;;;12.70;78.70;;;;;;5009207;28;20269;-47
2022/03/26 06:00:49;;;;;;;10.87;5.20;;;12.70;78.90;;;;;;5008238;28;20711;-45
2022/03/26 06:03:17;;;;;;;6.20;4.23;;;12.70;79.10;;;;;;5022952;28;20247;-48
2022/03/26 06:05:46;;;;;;;9.97;5.33;;;12.70;79.00;;;;;;5027616;28;20647;-47
2022/03/26 06:08:13;;;;;;;6.10;4.63;;;12.80;79.30;;;;;;5025747;28;20193;-46
2022/03/26 06:10:40;;;;;;;9.80;5.10;;;12.80;79.30;;;;;;5029572;28;20656;-49
2022/03/26 06:13:07;;;;;;;9.33;5.27;;;12.80;79.30;;;;;;5026584;28;20202;-46
2022/03/26 06:15:35;;;;;;;12.10;4.57;;;12.90;79.70;;;;;;5027423;28;20678;-45
2022/03/26 06:18:02;;;;;;;6.53;4.67;;;12.90;79.60;;;;;;4994080;28;21038;-47
2022/03/26 06:20:29;;;;;;;8.73;5.00;;;12.90;79.60;;;;;;4994245;28;20205;-52
2022/03/26 06:22:58;;;;;;;8.70;4.87;;;12.90;79.80;;;;;;5011958;28;20203;-47
2022/03/26 06:25:25;;;;;;;10.33;4.73;;;13.00;79.90;;;;;;5024107;28;20251;-48
2022/03/26 06:27:52;;;;;;;5.60;3.70;;;13.00;79.70;;;;;;5028914;28;20297;-50
2022/03/26 06:30:20;;;;;;;6.67;4.53;;;13.00;79.50;;;;;;5023350;28;20199;-48
2022/03/26 06:32:47;;;;;;;7.87;4.67;;;13.10;79.40;;;;;;5028146;28;20225;-46
2022/03/26 06:35:14;;;;;;;6.87;4.57;;;13.10;79.30;;;;;;5008453;28;20669;-46
2022/03/26 06:37:41;;;;;;;8.33;4.13;;;13.10;79.30;;;;;;5010540;28;20316;-47
2022/03/26 06:40:11;;;;;;;8.40;4.10;;;13.10;79.30;;;;;;5012515;28;20274;-45
2022/03/26 06:42:38;;;;;;;7.70;4.23;;;13.10;79.20;;;;;;5011113;28;20226;-50
2022/03/26 06:45:06;;;;;;;6.70;4.03;;;13.20;79.30;;;;;;5011368;28;20207;-48
2022/03/26 06:47:33;;;;;;;5.97;4.17;;;13.20;79.30;;;;;;5014618;28;20201;-44
2022/03/26 06:50:00;;;;;;;5.57;3.77;;;12.70;78.90;;;;;;5025180;28;20209;-47
2022/03/26 06:52:27;;;;;;;6.47;3.27;;;13.20;79.20;;;;;;5011999;28;20203;-45
2022/03/26 06:54:54;;;;;;;7.33;4.10;;;13.30;79.10;;;;;;5012285;28;20601;-43
2022/03/26 06:57:23;;;;;;;11.40;4.57;;;13.30;78.90;;;;;;5011387;28;20575;-51
2022/03/26 06:59:50;;;;;;;7.90;4.30;;;13.30;78.90;;;;;;5011004;28;20947;-48
2022/03/26 07:02:17;;;;;;;9.93;4.43;;;13.40;78.80;;;;;;5010936;28;20195;-45
2022/03/26 07:04:44;;;;;;;8.03;4.03;;;13.40;78.70;;;;;;5011388;28;20210;-45
2022/03/26 07:07:13;;;;;;;5.63;3.57;;;13.40;78.50;;;;;;5024164;28;20314;-45
2022/03/26 07:09:41;;;;;;;3.87;3.40;;;13.50;78.20;;;;;;5031267;28;20202;-47
2022/03/26 07:12:09;;;;;;;4.87;2.80;;;13.60;77.90;;;;;;5031050;28;20200;-50
2022/03/26 07:14:38;;;;;;;8.53;4.63;;;13.70;77.90;;;;;;5025069;28;20685;-49
2022/03/26 07:17:05;;;;;;;6.47;3.63;;;13.80;76.80;;;;;;5023858;28;20191;-50
2022/03/26 07:19:33;;;;;;;6.03;3.53;;;13.90;76.40;;;;;;5031398;28;20196;-50
2022/03/26 07:22:00;;;;;;;7.47;3.50;;;14.00;76.10;;;;;;5030975;28;20207;-49
2022/03/26 07:24:27;;;;;;;2.60;2.40;;;14.00;75.10;;;;;;5031065;28;20303;-45
2022/03/26 07:26:54;;;;;;;4.27;3.10;;;14.10;74.80;;;;;;5030102;28;20210;-45
2022/03/26 07:29:21;;;;;;;6.63;3.80;;;14.20;74.10;;;;;;5031299;28;20675;-48
2022/03/26 07:31:49;;;;;;;3.87;2.93;;;14.30;73.30;;;;;;5030321;28;20606;-48
2022/03/26 07:34:17;;;;;;;5.50;3.00;;;14.40;73.10;;;;;;5030482;28;20648;-52
2022/03/26 07:36:44;;;;;;;7.33;3.80;;;14.50;72.40;;;;;;5029766;28;20204;-47
2022/03/26 07:39:12;;;;;;;9.57;3.87;;;14.60;71.90;;;;;;5027796;28;20293;-51
2022/03/26 07:41:40;;;;;;;4.17;3.17;;;14.70;71.30;;;;;;5012934;28;20303;-49
2022/03/26 07:44:08;;;;;;;6.20;3.77;;;14.80;70.80;;;;;;5030704;28;20191;-53
2022/03/26 07:46:35;;;;;;;4.77;3.23;;;14.90;70.30;;;;;;5029811;28;20281;-51
2022/03/26 07:49:05;;;;;;;4.80;2.87;;;15.00;70.00;;;;;;5029213;28;20196;-52
2022/03/26 07:51:32;;;;;;;6.50;3.50;;;15.10;69.50;;;;;;5030505;28;20276;-52
2022/03/26 07:53:59;;;;;;;4.67;2.87;;;15.20;68.90;;;;;;5030599;28;20202;-51
2022/03/26 07:56:26;;;;;;;6.87;3.53;;;15.20;68.20;;;;;;5029861;28;20207;-53
2022/03/26 07:58:54;;;;;;;5.27;2.60;;;15.30;67.40;;;;;;5030779;28;20977;-52
2022/03/26 08:01:21;;;;;;;3.80;2.53;;;15.30;67.00;;;;;;5029994;28;20192;-44
2022/03/26 08:03:52;;;;;;;5.57;2.83;;;15.40;66.60;;;;;;5029558;28;20197;-45
2022/03/26 08:06:21;;;;;;;3.40;2.40;;;15.50;66.30;;;;;;5021556;28;20264;-49
2022/03/26 08:08:48;;;;;;;5.53;2.67;;;15.70;65.60;;;;;;5005804;28;20183;-47
2022/03/26 08:11:15;;;;;;;3.53;2.80;;;16.10;64.70;;;;;;5005713;28;20202;-50
2022/03/26 08:13:42;;;;;;;5.50;3.07;;;16.60;63.20;;;;;;5010469;28;20280;-48
2022/03/26 08:16:10;;;;;;;3.37;1.90;;;17.20;61.20;;;;;;5006875;28;20254;-46
2022/03/26 08:18:37;;;;;;;5.30;2.20;;;17.80;59.60;;;;;;5011849;28;20346;-46
2022/03/26 08:21:05;;;;;;;5.63;2.97;;;18.00;58.30;;;;;;5010220;28;20702;-45
2022/03/26 08:23:34;;;;;;;6.33;3.13;;;17.90;57.20;;;;;;5007300;28;20254;-50
2022/03/26 08:28:46;;;;;;;2.70;1.87;;;18.60;56.60;;;;;;4997274;28;20202;-50
2022/03/26 08:31:13;;;;;;;2.63;1.70;;;19.20;55.20;;;;;;5009622;28;20687;-49
2022/03/26 08:33:41;;;;;;;3.57;2.40;;;19.20;54.70;;;;;;5009724;28;20207;-45
2022/03/26 08:36:08;;;;;;;2.27;1.97;;;19.20;53.60;;;;;;5009312;28;20562;-49
2022/03/26 08:38:37;;;;;;;4.33;2.10;;;19.10;53.30;;;;;;5009662;28;20219;-51
2022/03/26 08:41:04;;;;;;;6.27;2.30;;;18.80;53.40;;;;;;5010304;28;20657;-50
2022/03/26 08:43:32;;;;;;;1.60;1.50;;;18.50;52.40;;;;;;5002332;28;20199;-53
2022/03/26 08:45:59;;;;;;;1.47;1.37;;;18.00;53.00;;;;;;5005501;28;20191;-54
2022/03/26 08:48:26;;;;;;;4.73;1.83;;;17.70;53.70;;;;;;5009649;28;20199;-50
2022/03/26 08:50:53;;;;;;;3.00;2.00;;;17.30;53.60;;;;;;5006656;28;20203;-52
2022/03/26 08:53:21;;;;;;;2.67;1.77;;;17.00;53.50;;;;;;5005842;28;20214;-49
2022/03/26 08:55:49;;;;;;;2.53;1.50;;;17.00;54.00;;;;;;5007278;28;20191;-44
2022/03/26 08:58:17;;;;;;;2.67;1.40;;;18.50;53.60;;;;;;5009151;28;20223;-45
2022/03/26 09:00:45;;;;;;;1.40;1.20;;;20.20;51.20;;;;;;4999525;28;20233;-47
2022/03/26 09:03:12;;;;;;;2.80;1.47;;;21.80;48.50;;;;;;5006962;28;20265;-49
2022/03/26 09:05:40;;;;;;;1.40;1.30;;;23.00;45.40;;;;;;5001176;28;20219;-51
2022/03/26 09:08:07;;;;;;;2.67;1.00;;;22.50;45.10;;;;;;4997240;28;20195;-53
2022/03/26 09:10:35;;;;;;;3.80;1.30;;;21.80;45.10;;;;;;4997278;28;20589;-50
2022/03/26 09:13:03;;;;;;;5.07;1.80;;;21.90;45.10;;;;;;5000425;28;20201;-48
2022/03/26 09:15:31;;;;;;;2.67;1.98;;;22.50;43.50;;;;;;5002186;28;20693;-48
2022/03/26 09:17:59;;;;;;;2.85;1.80;;;22.20;41.80;;;;;;5004806;28;20198;-51
2022/03/26 09:20:26;;;;;;;4.05;1.83;;;21.20;41.60;;;;;;4984093;28;20216;-51
2022/03/26 09:22:54;;;;;;;5.28;1.77;;;20.20;42.40;;;;;;5000140;28;20202;-53
2022/03/26 09:25:21;;;;;;;1.70;1.50;;;19.30;43.30;;;;;;5000776;28;20196;-51
2022/03/26 09:27:50;;;;;;;3.27;1.50;;;18.50;44.10;;;;;;4991351;28;20207;-44
2022/03/26 09:30:19;;;;;;;3.23;1.60;;;18.00;45.00;;;;;;5008082;28;20195;-44
2022/03/26 09:32:46;;;;;;;7.60;1.77;;;17.50;45.40;;;;;;5000941;28;20313;-44
2022/03/26 09:35:15;;;;;;;7.10;1.50;;;17.00;45.60;;;;;;5003918;28;20223;-47
2022/03/26 09:37:43;;;;;;;5.60;1.50;;;16.70;45.80;;;;;;5002647;28;20199;-43
2022/03/26 09:40:11;;;;;;;3.67;1.43;;;16.40;46.30;;;;;;5005963;28;20686;-43
2022/03/26 09:42:40;;;;;;;2.30;1.57;;;16.10;46.70;;;;;;4990812;28;20302;-45
2022/03/26 09:45:09;;;;;;;4.50;1.50;;;16.10;47.50;;;;;;5006859;28;20195;-46
2022/03/26 09:47:38;;;;;;;3.60;1.30;;;16.00;48.00;;;;;;5004270;28;20554;-47
2022/03/26 09:50:07;;;;;;;3.73;1.50;;;15.90;48.30;;;;;;5006696;28;20187;-50
2022/03/26 09:52:35;;;;;;;3.83;1.47;;;15.70;48.60;;;;;;4992880;28;20689;-49
2022/03/26 09:55:04;;;;;;;2.17;1.60;;;15.50;49.00;;;;;;5008873;28;20196;-45
2022/03/26 09:57:32;;;;;;;6.20;1.70;;;15.30;49.30;;;;;;5005249;28;20671;-48
2022/03/26 09:59:59;;;;;;;7.07;1.60;;;15.20;48.90;;;;;;4991277;28;21002;-43
2022/03/26 10:02:26;;;;;;;16.43;1.53;;;15.00;48.00;;;;;;5006142;28;20736;-49
2022/03/26 10:04:55;;;;;;;10.33;1.23;;;14.80;47.00;;;;;;5004594;28;20786;-47
2022/03/26 10:07:29;;;;;;;9.47;1.57;;;14.80;45.50;;;;;;5006070;28;20225;-49
2022/03/26 10:09:56;;;;;;;6.10;1.10;;;15.40;43.60;;;;;;5008805;28;20198;-46
2022/03/26 10:12:26;;;;;;;22.33;1.63;;;16.10;41.50;;;;;;5006230;28;20264;-48
2022/03/26 10:14:54;;;;;;;20.97;1.87;;;16.60;38.90;;;;;;5005442;28;20213;-48
2022/03/26 10:17:24;;;;;;;8.63;1.00;;;16.30;37.30;;;;;;5009307;28;20645;-49
2022/03/26 10:19:53;;;;;;;24.27;1.87;;;16.10;35.60;;;;;;5013275;28;20216;-48
2022/03/26 10:22:26;;;;;;;4.90;1.10;;;15.80;35.00;;;;;;5010378;28;20274;-47
2022/03/26 10:24:54;;;;;;;4.90;1.40;;;15.70;35.30;;;;;;5012756;28;20202;-47
2022/03/26 10:27:22;;;;;;;7.90;1.30;;;16.50;35.40;;;;;;5012272;28;20207;-48
2022/03/26 10:29:51;;;;;;;6.47;1.20;;;17.80;33.90;;;;;;4996140;28;20212;-48
2022/03/26 10:32:41;;;;;;;3.03;0.80;;;17.80;32.70;;;;;;5012102;28;20195;-47
2022/03/26 10:35:29;;;;;;;2.80;1.00;;;17.60;32.70;;;;;;5013908;28;20212;-49
2022/03/26 10:38:00;;;;;;;3.23;1.77;;;18.60;33.30;;;;;;5002910;28;20208;-51
2022/03/26 10:40:33;;;;;;;3.87;1.33;;;19.90;32.90;;;;;;5007890;28;20211;-50
2022/03/26 10:43:07;;;;;;;1.73;0.87;;;21.00;31.00;;;;;;5013630;28;20191;-50
2022/03/26 10:45:37;;;;;;;8.10;0.90;;;21.70;30.00;;;;;;5016032;28;20199;-49
2022/03/26 10:48:09;;;;;;;3.33;1.40;;;22.30;29.60;;;;;;5005404;28;20195;-48
2022/03/26 10:50:37;;;;;;;5.70;1.70;;;22.60;29.20;;;;;;5011662;28;20662;-51
2022/03/26 10:53:10;;;;;;;4.43;1.20;;;22.90;29.10;;;;;;5010693;28;20286;-49
2022/03/26 10:55:40;;;;;;;1.95;0.80;;;23.00;28.30;;;;;;5003024;28;20197;-47
2022/03/26 10:58:08;;;;;;;1.83;0.87;;;23.00;27.80;;;;;;5010156;28;20251;-50
2022/03/26 11:00:36;;;;;;;3.47;1.10;;;23.10;27.90;;;;;;5011593;28;20222;-51
2022/03/26 11:03:03;;;;;;;2.30;0.82;;;23.30;27.50;;;;;;5012439;28;20700;-51
2022/03/26 11:05:31;;;;;;;2.30;1.02;;;23.30;27.50;;;;;;5002925;28;20210;-46
2022/03/26 11:08:00;;;;;;;4.70;1.27;;;23.40;27.50;;;;;;5007578;28;20194;-45
2022/03/26 11:10:31;;;;;;;4.82;1.05;;;23.40;27.60;;;;;;5015803;28;20195;-55
2022/03/26 11:13:00;;;;;;;8.77;1.10;;;23.40;27.60;;;;;;5011400;28;20697;-48
2022/03/26 11:15:30;;;;;;;4.20;1.10;;;23.50;28.00;;;;;;5001256;28;20203;-47
2022/03/26 11:18:07;;;;;;;8.48;1.83;;;23.40;28.20;;;;;;5011263;28;20611;-48
2022/03/26 11:21:05;;;;;;;2.95;1.08;;;23.30;28.70;;;;;;5011422;28;20211;-46
2022/03/26 11:23:42;;;;;;;3.05;1.10;;;23.30;28.90;;;;;;5007706;28;20199;-48
2022/03/26 11:26:29;;;;;;;2.92;1.10;;;23.30;28.70;;;;;;5013091;28;20206;-50
2022/03/26 11:29:10;;;;;;;2.85;1.15;;;23.20;28.90;;;;;;5006472;28;20651;-49
2022/03/26 11:31:47;;;;;;;2.47;1.17;;;23.30;28.90;;;;;;5006311;28;20195;-51
2022/03/26 11:34:18;;;;;;;5.75;1.20;;;23.10;28.70;;;;;;5009944;28;20566;-52
2022/03/26 11:36:45;;;;;;;3.38;1.10;;;23.10;28.60;;;;;;5011133;28;20187;-48
2022/03/26 11:39:14;;;;;;;5.38;1.00;;;23.20;28.80;;;;;;5011306;28;20252;-49
2022/03/26 11:41:45;;;;;;;3.47;1.20;;;23.10;28.40;;;;;;5002192;28;20192;-45
2022/03/26 11:44:13;;;;;;;8.18;1.15;;;22.90;28.40;;;;;;5006857;28;20195;-48
2022/03/26 11:52:22;;;;;;;1.70;1.02;;;22.50;28.40;;;;;;5004516;28;20556;-44
2022/03/26 11:54:53;;;;;;;1.33;0.90;;;22.30;28.10;;;;;;5007102;28;20206;-48
2022/03/26 11:57:23;;;;;;;0.55;0.55;;;22.20;28.10;;;;;;5010632;28;20248;-49
2022/03/26 11:59:52;;;;;;;2.25;1.00;;;22.10;28.20;;;;;;5009906;28;20207;-52
2022/03/26 12:02:21;;;;;;;3.15;1.30;;;21.80;28.20;;;;;;5004811;28;20203;-50
2022/03/26 12:04:54;;;;;;;2.85;1.13;;;21.60;28.30;;;;;;5007804;28;20195;-49
2022/03/26 12:07:23;;;;;;;7.65;1.40;;;21.40;28.30;;;;;;5026074;28;20314;-43
2022/03/26 12:10:04;;;;;;;1.40;0.90;;;21.40;28.70;;;;;;5027743;28;20191;-49
2022/03/26 12:15:31;;;;;;;2.80;0.88;;;21.30;29.00;;;;;;5082126;27;20579;-50
2022/03/26 12:18:10;;;;;;;1.50;1.00;;;20.90;28.90;;;;;;5076863;28;20197;-51
2022/03/26 12:20:39;;;;;;;2.83;1.95;;;20.70;29.20;;;;;;5097867;28;20596;-52
2022/03/26 12:23:12;;;;;;;5.30;1.38;;;20.50;29.30;;;;;;5078588;28;20189;-44
2022/03/26 12:25:49;;;;;;;3.13;1.00;;;20.30;29.10;;;;;;5074684;28;20766;-45
2022/03/26 12:28:18;;;;;;;8.70;1.00;;;20.20;29.20;;;;;;5082527;28;20322;-42
2022/03/26 12:30:52;;;;;;;2.22;0.90;;;20.10;29.00;;;;;;5073395;28;20207;-53
2022/03/26 12:33:20;;;;;;;0.77;0.77;;;19.90;29.10;;;;;;5074176;28;20200;-51
2022/03/26 12:35:50;;;;;;;3.42;1.08;;;19.80;29.30;;;;;;5076157;28;20201;-47
2022/03/26 12:38:19;;;;;;;0.95;0.93;;;19.70;29.40;;;;;;5076266;28;20193;-46
2022/03/26 12:40:50;;;;;;;3.55;0.93;;;19.60;29.50;;;;;;5074677;28;20584;-50
2022/03/26 12:43:18;;;;;;;12.55;1.48;;;19.40;29.60;;;;;;5079633;28;20197;-52
2022/03/26 12:45:47;;;;;;;2.55;0.90;;;19.20;29.70;;;;;;5081023;28;20197;-50
2022/03/26 12:48:15;;;;;;;1.48;0.85;;;19.10;29.80;;;;;;5076421;28;20224;-49
2022/03/26 12:50:44;;;;;;;1.70;0.98;;;19.20;30.10;;;;;;5078106;28;20216;-45
2022/03/26 12:53:14;;;;;;;2.30;0.85;;;19.60;30.00;;;;;;5077233;28;20205;-53
2022/03/26 12:55:42;;;;;;;4.40;1.13;;;21.10;29.80;;;;;;5080749;28;20185;-49
2022/03/26 13:01:07;;;;;;;4.97;0.90;;;24.10;27.10;;;;;;5098035;28;20194;-48
2022/03/26 13:03:35;;;;;;;3.50;1.10;;;25.40;26.70;;;;;;5079734;28;20215;-48